< < Back
Terminal Aerodrome Forecast


Current Version              Previous Versions:   1  2  3  4  5  6  7  8  9  

Terminal Aerodrome Forecast

834
FTUS42 KILM 270520
TAFFLO
TAF
KFLO 270520Z 2706/2806 23006KT P6SM SCT080
     FM271200 26008KT P6SM SKC
     FM271800 23008KT P6SM FEW050
     FM280000 21005KT P6SM SKC=



Latest METAR

987
SAUS70 KWBC 270500
MTRFLO
METAR KFLO 270453Z AUTO 23008KT 10SM CLR 28/23 A3001 RMK AO2 SLP157
T02830233 403610244


USA.gov is the U.S. government's official web portal to all federal, state and local government web resources and services.